createdAt,value
2022-11-22T00:00:00.856Z,2.13
2022-11-22T00:01:32.840Z,1.79
2022-11-22T00:03:04.335Z,1.78
2022-11-22T00:04:35.622Z,1.78
2022-11-22T00:06:07.002Z,1.65
2022-11-22T00:07:38.439Z,1.60
2022-11-22T00:09:11.075Z,1.62
2022-11-22T00:10:42.352Z,1.72
2022-11-22T00:12:13.788Z,1.56
2022-11-22T00:13:45.082Z,1.60
2022-11-22T00:15:16.339Z,1.47
2022-11-22T00:16:47.981Z,1.45
2022-11-22T00:18:19.232Z,1.54
2022-11-22T00:19:51.285Z,1.32
2022-11-22T00:21:22.676Z,1.63
2022-11-22T00:22:53.985Z,1.67
2022-11-22T00:24:25.237Z,1.37
2022-11-22T00:25:56.601Z,1.55
2022-11-22T00:27:27.860Z,1.66
2022-11-22T00:28:59.224Z,1.65
2022-11-22T00:30:30.703Z,1.48
2022-11-22T00:32:01.929Z,1.56
2022-11-22T00:33:33.098Z,1.42
2022-11-22T00:35:04.626Z,1.51
2022-11-22T00:36:35.820Z,1.50
2022-11-22T00:38:07.064Z,1.68
2022-11-22T00:39:38.312Z,1.36
2022-11-22T00:41:09.666Z,1.67
2022-11-22T00:42:40.901Z,1.50
2022-11-22T00:44:12.124Z,1.48
2022-11-22T00:45:43.405Z,1.52
2022-11-22T00:47:14.861Z,1.45
2022-11-22T00:48:46.145Z,1.58
2022-11-22T00:50:17.419Z,1.66
2022-11-22T00:51:48.777Z,1.62
2022-11-22T00:53:20.338Z,1.56
2022-11-22T00:54:55.043Z,1.60
2022-11-22T00:56:26.698Z,1.52
2022-11-22T00:57:58.056Z,1.40
2022-11-22T00:59:29.453Z,1.41
2022-11-22T01:01:01.302Z,1.24
2022-11-22T01:02:32.557Z,1.37
2022-11-22T01:04:04.141Z,1.52
2022-11-22T01:05:35.411Z,1.45
2022-11-22T01:07:06.788Z,1.47
2022-11-22T01:08:38.067Z,1.38
2022-11-22T01:10:09.284Z,1.51
2022-11-22T01:11:40.619Z,1.59
2022-11-22T01:13:11.835Z,1.41
2022-11-22T01:14:43.153Z,1.71
2022-11-22T01:16:14.432Z,1.49
2022-11-22T01:17:45.760Z,1.44
2022-11-22T01:19:16.959Z,1.48
2022-11-22T01:20:48.552Z,1.44
2022-11-22T01:22:20.157Z,1.65
2022-11-22T01:23:51.383Z,1.40
2022-11-22T01:25:22.570Z,1.57
2022-11-22T01:26:54.048Z,1.20
2022-11-22T01:28:25.335Z,1.30
2022-11-22T01:29:56.604Z,1.41
2022-11-22T01:31:28.182Z,1.44
2022-11-22T01:32:59.535Z,1.43
2022-11-22T01:34:30.928Z,1.41
2022-11-22T01:36:02.391Z,1.65
2022-11-22T01:37:34.053Z,1.48
2022-11-22T01:39:05.353Z,1.57
2022-11-22T01:40:37.326Z,1.78
2022-11-22T01:42:08.634Z,1.63
2022-11-22T01:43:39.918Z,1.73
2022-11-22T01:45:11.360Z,1.69
2022-11-22T01:46:42.658Z,1.75
2022-11-22T01:48:13.870Z,1.68
2022-11-22T01:49:45.195Z,1.63
2022-11-22T01:51:16.428Z,1.68
2022-11-22T01:52:47.614Z,1.76
2022-11-22T01:54:18.897Z,1.99
2022-11-22T01:55:50.448Z,1.92
2022-11-22T01:57:21.795Z,2.03
2022-11-22T01:58:53.150Z,1.64
2022-11-22T02:00:25.612Z,1.83
2022-11-22T02:01:56.860Z,1.87
2022-11-22T02:03:28.630Z,1.68
2022-11-22T02:04:59.971Z,1.58
2022-11-22T02:06:31.334Z,1.76
2022-11-22T02:08:02.739Z,1.79
2022-11-22T02:09:34.343Z,1.96
2022-11-22T02:11:05.798Z,1.85
2022-11-22T02:12:37.132Z,1.82
2022-11-22T02:14:08.585Z,2.16
2022-11-22T02:15:40.024Z,1.88
2022-11-22T02:17:11.163Z,1.92
2022-11-22T02:18:42.805Z,1.74
2022-11-22T02:20:13.997Z,1.96
2022-11-22T02:21:45.341Z,1.92
2022-11-22T02:23:16.581Z,1.70
2022-11-22T02:24:47.980Z,1.64
2022-11-22T02:26:19.292Z,1.86
2022-11-22T02:27:50.765Z,2.02
2022-11-22T02:29:22.200Z,1.93
2022-11-22T02:30:53.636Z,1.91
2022-11-22T02:32:24.989Z,1.82
2022-11-22T02:34:01.345Z,1.95
2022-11-22T02:35:33.052Z,1.82
2022-11-22T02:37:04.325Z,2.14
2022-11-22T02:38:35.528Z,1.80
2022-11-22T02:40:06.855Z,1.90
2022-11-22T02:41:38.216Z,2.00
2022-11-22T02:43:09.493Z,1.90
2022-11-22T02:44:40.746Z,2.09
2022-11-22T02:46:12.376Z,1.92
2022-11-22T02:47:43.823Z,2.21
2022-11-22T02:49:15.283Z,2.11
2022-11-22T02:50:46.526Z,2.10
2022-11-22T02:52:17.818Z,2.07
2022-11-22T02:53:49.052Z,2.19
2022-11-22T02:55:20.303Z,1.92
2022-11-22T02:56:51.776Z,2.05
2022-11-22T02:58:23.411Z,2.26
2022-11-22T02:59:54.675Z,2.26
2022-11-22T03:01:26.192Z,2.06
2022-11-22T03:02:57.820Z,2.21
2022-11-22T03:04:29.198Z,2.20
2022-11-22T03:06:00.620Z,2.15
2022-11-22T03:07:31.915Z,1.97
2022-11-22T03:09:03.402Z,2.21
2022-11-22T03:10:34.718Z,2.17
2022-11-22T03:12:06.164Z,2.21
2022-11-22T03:13:37.531Z,2.17
2022-11-22T03:15:09.057Z,2.21
2022-11-22T03:16:40.639Z,1.89
2022-11-22T03:18:12.004Z,2.24
2022-11-22T03:19:43.388Z,2.21
2022-11-22T03:21:14.585Z,2.15
2022-11-22T03:22:45.931Z,2.24
2022-11-22T03:24:17.209Z,2.17
2022-11-22T03:25:48.451Z,2.51
2022-11-22T03:27:20.123Z,2.41
2022-11-22T03:28:51.827Z,2.26
2022-11-22T03:30:23.252Z,2.29
2022-11-22T03:31:54.825Z,2.33
2022-11-22T03:33:26.069Z,2.20
2022-11-22T03:34:57.541Z,2.29
2022-11-22T03:36:28.845Z,2.35
2022-11-22T03:38:00.462Z,2.50
2022-11-22T03:39:32.163Z,2.29
2022-11-22T03:41:03.870Z,2.23
2022-11-22T03:42:35.209Z,2.43
2022-11-22T03:44:06.396Z,2.35
2022-11-22T03:45:37.804Z,2.31
2022-11-22T03:47:09.042Z,2.43
2022-11-22T03:48:40.338Z,2.55
2022-11-22T03:50:11.602Z,2.34
2022-11-22T03:51:43.057Z,2.52
2022-11-22T03:53:14.542Z,2.70
2022-11-22T03:54:45.887Z,2.36
2022-11-22T03:56:17.174Z,2.40
2022-11-22T03:57:48.564Z,2.85
2022-11-22T03:59:20.000Z,2.76
2022-11-22T04:00:51.294Z,2.56
2022-11-22T04:02:22.829Z,2.77
2022-11-22T04:03:54.034Z,2.99
2022-11-22T04:05:25.316Z,3.24
2022-11-22T04:06:56.610Z,2.50
2022-11-22T04:08:27.961Z,2.46
2022-11-22T04:09:59.237Z,2.53
2022-11-22T04:11:30.480Z,2.71
2022-11-22T04:13:01.763Z,2.75
2022-11-22T04:14:33.023Z,2.60
2022-11-22T04:16:04.451Z,2.63
2022-11-22T04:17:35.976Z,2.59
2022-11-22T04:19:07.280Z,2.69
2022-11-22T04:20:38.693Z,2.61
2022-11-22T04:22:10.041Z,2.63
2022-11-22T04:23:41.346Z,2.63
2022-11-22T04:25:12.683Z,2.79
2022-11-22T04:26:43.991Z,2.64
2022-11-22T04:28:15.573Z,2.23
2022-11-22T04:29:46.952Z,2.37
2022-11-22T04:31:18.221Z,2.85
2022-11-22T04:32:49.509Z,2.65
2022-11-22T04:34:20.866Z,2.89
2022-11-22T04:35:52.282Z,2.76
2022-11-22T04:37:23.604Z,2.42
2022-11-22T04:38:54.899Z,2.64
2022-11-22T04:40:26.253Z,2.65
2022-11-22T04:41:57.529Z,2.53
2022-11-22T04:43:29.153Z,2.12
2022-11-22T04:45:01.574Z,2.32
2022-11-22T04:46:32.760Z,2.50
2022-11-22T04:48:04.044Z,2.36
2022-11-22T04:49:36.048Z,2.87
2022-11-22T04:51:07.285Z,2.44
2022-11-22T04:52:38.576Z,2.36
2022-11-22T04:54:09.797Z,2.47
2022-11-22T04:55:51.446Z,2.48
2022-11-22T04:57:22.713Z,2.41
2022-11-22T04:58:54.008Z,2.41
2022-11-22T05:00:25.361Z,2.42
2022-11-22T05:01:56.624Z,2.38
2022-11-22T05:03:27.913Z,2.39
2022-11-22T05:04:59.475Z,2.54
2022-11-22T05:06:30.664Z,2.89
2022-11-22T05:08:01.972Z,2.59
2022-11-22T05:09:33.310Z,2.51
2022-11-22T05:11:04.615Z,2.31
2022-11-22T05:12:46.036Z,2.48
2022-11-22T05:14:17.243Z,2.41
2022-11-22T05:15:48.513Z,2.37
2022-11-22T05:17:19.773Z,2.79
2022-11-22T05:18:51.059Z,2.65
2022-11-22T05:20:22.337Z,2.89
2022-11-22T05:21:53.801Z,2.50
2022-11-22T05:23:25.071Z,2.86
2022-11-22T05:24:56.292Z,2.31
2022-11-22T05:26:27.487Z,2.93
2022-11-22T05:27:58.764Z,2.88
2022-11-22T05:29:45.140Z,2.99
2022-11-22T05:31:31.424Z,2.90
2022-11-22T05:33:02.668Z,3.11
2022-11-22T05:34:44.061Z,3.46
2022-11-22T05:36:15.430Z,3.18
2022-11-22T05:37:46.692Z,2.70
2022-11-22T05:39:18.038Z,2.72
2022-11-22T05:42:45.858Z,2.73
2022-11-22T05:44:17.015Z,2.62
2022-11-22T05:45:48.473Z,2.70
2022-11-22T05:47:19.847Z,2.72
2022-11-22T05:48:51.474Z,2.50
2022-11-22T05:50:22.645Z,2.61
2022-11-22T05:51:54.585Z,3.10
2022-11-22T05:53:25.798Z,2.66
2022-11-22T05:54:57.136Z,2.82
2022-11-22T05:56:28.421Z,2.60
2022-11-22T05:58:00.162Z,2.75
2022-11-22T05:59:31.984Z,2.70
2022-11-22T06:01:03.363Z,2.55
2022-11-22T06:02:34.778Z,2.74
2022-11-22T06:04:06.177Z,2.65
2022-11-22T06:05:37.356Z,2.25
2022-11-22T06:07:10.385Z,2.70
2022-11-22T06:08:42.084Z,2.77
2022-11-22T06:10:13.291Z,2.28
2022-11-22T06:11:44.595Z,2.47
2022-11-22T06:13:15.830Z,2.73
2022-11-22T06:14:52.213Z,2.76
2022-11-22T06:16:38.691Z,2.51
2022-11-22T06:18:09.846Z,2.35
2022-11-22T06:19:41.285Z,2.77
2022-11-22T06:21:12.880Z,2.81
2022-11-22T06:22:44.150Z,2.73
2022-11-22T06:24:15.593Z,2.64
2022-11-22T06:25:47.079Z,2.60
2022-11-22T06:27:18.537Z,2.41
2022-11-22T06:28:49.881Z,2.55
2022-11-22T06:30:26.329Z,2.73
2022-11-22T06:32:04.042Z,2.56
2022-11-22T06:33:35.606Z,2.58
2022-11-22T06:35:06.847Z,2.64
2022-11-22T06:36:38.103Z,2.40
2022-11-22T06:38:09.349Z,2.55
2022-11-22T06:39:40.605Z,2.70
2022-11-22T06:41:11.903Z,2.48
2022-11-22T06:42:43.273Z,2.91
2022-11-22T06:44:14.520Z,2.58
2022-11-22T06:45:45.791Z,2.76
2022-11-22T06:47:17.032Z,2.61
2022-11-22T06:48:48.381Z,2.43
2022-11-22T06:50:21.880Z,2.50
2022-11-22T06:51:53.371Z,2.53
2022-11-22T06:53:46.108Z,2.63
2022-11-22T06:55:48.316Z,2.87
2022-11-22T06:57:20.771Z,2.99
2022-11-22T06:58:52.062Z,3.36
2022-11-22T07:00:23.416Z,2.91
2022-11-22T07:01:54.909Z,2.89
2022-11-22T07:03:26.818Z,2.83
2022-11-22T07:05:24.081Z,3.10
2022-11-22T07:06:56.788Z,2.95
2022-11-22T07:08:28.411Z,2.96
2022-11-22T07:09:59.590Z,3.12
2022-11-22T07:11:30.916Z,3.14
2022-11-22T07:13:02.659Z,3.35
2022-11-22T07:14:33.852Z,3.66
2022-11-22T07:16:05.108Z,2.71
2022-11-22T07:17:36.453Z,2.85
2022-11-22T07:19:07.784Z,2.86
2022-11-22T07:20:39.160Z,2.69
2022-11-22T07:22:10.401Z,2.76
2022-11-22T07:23:41.578Z,2.88
2022-11-22T07:25:12.909Z,2.54
2022-11-22T07:26:44.201Z,2.84
2022-11-22T07:28:15.459Z,2.74
2022-11-22T07:29:46.732Z,2.76
2022-11-22T07:31:18.215Z,2.64
2022-11-22T07:32:49.473Z,2.87
2022-11-22T07:34:20.738Z,2.52
2022-11-22T07:35:52.189Z,2.45
2022-11-22T07:37:23.464Z,2.58
2022-11-22T07:38:54.886Z,2.82
2022-11-22T07:40:26.140Z,2.82
2022-11-22T07:41:57.484Z,2.55
2022-11-22T07:43:28.762Z,2.26
2022-11-22T07:45:00.096Z,2.65
2022-11-22T07:46:32.066Z,2.87
2022-11-22T07:48:03.431Z,2.67
2022-11-22T07:49:34.633Z,2.63
2022-11-22T07:51:05.967Z,2.65
2022-11-22T07:52:37.184Z,2.72
2022-11-22T07:54:08.607Z,2.44
2022-11-22T07:55:39.873Z,2.44
2022-11-22T07:57:11.344Z,2.44
2022-11-22T07:58:42.892Z,2.74
2022-11-22T08:00:14.222Z,2.63
2022-11-22T08:01:46.041Z,2.68
2022-11-22T08:03:18.284Z,2.37
2022-11-22T08:04:50.436Z,2.56
2022-11-22T08:06:21.671Z,2.51
2022-11-22T08:07:53.291Z,2.30
2022-11-22T08:09:24.883Z,2.41
2022-11-22T08:10:56.139Z,2.63
2022-11-22T08:12:27.410Z,2.54
2022-11-22T08:13:59.204Z,2.39
2022-11-22T08:15:40.426Z,2.61
2022-11-22T08:17:11.979Z,2.37
2022-11-22T08:18:43.470Z,2.56
2022-11-22T08:20:14.703Z,2.68
2022-11-22T08:21:45.952Z,2.97
2022-11-22T08:23:17.581Z,2.66
2022-11-22T08:24:48.970Z,3.15
2022-11-22T08:26:20.531Z,2.46
2022-11-22T08:27:52.001Z,2.51
2022-11-22T08:29:23.352Z,2.33
2022-11-22T08:30:54.656Z,2.35
2022-11-22T08:32:25.897Z,2.46
2022-11-22T08:33:57.377Z,2.17
2022-11-22T08:35:28.719Z,2.62
2022-11-22T08:37:00.008Z,2.38
2022-11-22T08:38:31.229Z,2.61
2022-11-22T08:40:27.487Z,2.50
2022-11-22T08:41:58.791Z,2.46
2022-11-22T08:43:30.259Z,2.45
2022-11-22T08:45:01.773Z,2.36
2022-11-22T08:46:33.061Z,2.40
2022-11-22T08:48:04.437Z,2.47
2022-11-22T08:49:41.334Z,1.94
2022-11-22T08:51:12.726Z,2.14
2022-11-22T08:52:44.269Z,2.62
2022-11-22T08:54:15.537Z,2.39
2022-11-22T08:55:46.942Z,2.59
2022-11-22T08:57:18.394Z,2.13
2022-11-22T08:58:49.840Z,1.89
2022-11-22T09:00:21.148Z,1.96
2022-11-22T09:01:52.482Z,2.02
2022-11-22T09:03:23.859Z,2.42
2022-11-22T09:04:55.126Z,2.27
2022-11-22T09:08:30.014Z,2.01
2022-11-22T09:10:04.033Z,1.86
2022-11-22T09:11:35.302Z,2.00
2022-11-22T09:13:06.547Z,2.14
2022-11-22T09:14:37.779Z,2.07
2022-11-22T09:16:09.030Z,2.54
2022-11-22T09:17:40.226Z,2.00
2022-11-22T09:19:11.774Z,1.86
2022-11-22T09:20:43.179Z,2.17
2022-11-22T09:22:14.618Z,1.99
2022-11-22T09:23:45.900Z,2.13
2022-11-22T09:25:17.150Z,1.70
2022-11-22T09:26:48.624Z,1.84
2022-11-22T09:28:19.983Z,1.80
2022-11-22T09:29:51.253Z,2.03
2022-11-22T09:31:23.874Z,1.88
2022-11-22T09:33:00.207Z,2.13
2022-11-22T09:34:32.553Z,1.88
2022-11-22T09:36:03.791Z,2.24
2022-11-22T09:37:35.019Z,2.31
2022-11-22T09:39:06.579Z,2.32
2022-11-22T09:40:37.940Z,2.15
2022-11-22T09:42:09.197Z,2.18
2022-11-22T09:43:40.630Z,2.52
2022-11-22T09:45:12.109Z,2.21
2022-11-22T09:46:43.592Z,2.05
2022-11-22T09:48:14.866Z,2.14
2022-11-22T09:49:46.272Z,2.18
2022-11-22T09:51:18.030Z,2.25
2022-11-22T09:52:49.391Z,2.50
2022-11-22T09:54:20.649Z,2.34
2022-11-22T09:55:51.975Z,2.26
2022-11-22T09:57:28.341Z,2.26
2022-11-22T09:58:59.605Z,1.95
2022-11-22T10:00:30.897Z,1.72
2022-11-22T10:02:16.839Z,2.01
2022-11-22T10:03:49.174Z,2.07
2022-11-22T10:05:20.453Z,1.86
2022-11-22T10:06:52.148Z,2.02
2022-11-22T10:08:23.564Z,2.29
2022-11-22T10:09:54.955Z,1.98
2022-11-22T10:11:26.354Z,1.72
2022-11-22T10:12:57.738Z,2.11
2022-11-22T10:14:29.010Z,2.64
2022-11-22T10:16:00.682Z,2.61
2022-11-22T10:17:31.974Z,2.35
2022-11-22T10:19:03.224Z,2.47
2022-11-22T10:20:34.621Z,2.17
2022-11-22T10:22:05.810Z,2.34
2022-11-22T10:23:37.024Z,2.41
2022-11-22T10:25:08.292Z,2.28
2022-11-22T10:26:39.518Z,2.15
2022-11-22T10:28:10.875Z,2.57
2022-11-22T10:29:42.224Z,2.34
2022-11-22T10:31:19.050Z,2.54
2022-11-22T10:33:30.534Z,2.55
2022-11-22T10:35:02.095Z,2.25
2022-11-22T10:36:33.766Z,2.08
2022-11-22T10:38:05.305Z,1.85
2022-11-22T10:39:36.835Z,1.81
2022-11-22T10:41:08.462Z,1.98
2022-11-22T10:42:39.704Z,2.12
2022-11-22T10:44:11.196Z,1.83
2022-11-22T10:45:42.443Z,2.13
2022-11-22T10:47:13.851Z,1.91
2022-11-22T10:48:45.384Z,2.10
2022-11-22T10:50:16.743Z,1.86
2022-11-22T10:51:48.108Z,1.90
2022-11-22T10:53:19.450Z,2.05
2022-11-22T10:54:50.720Z,1.81
2022-11-22T10:56:22.099Z,2.05
2022-11-22T10:57:53.430Z,1.87
2022-11-22T10:59:28.714Z,2.20
2022-11-22T11:01:00.442Z,1.96
2022-11-22T11:02:31.763Z,2.09
2022-11-22T11:04:04.320Z,1.59
2022-11-22T11:05:37.371Z,2.04
2022-11-22T11:07:12.923Z,2.05
2022-11-22T11:09:12.302Z,1.70
2022-11-22T11:11:07.956Z,1.63
2022-11-22T11:12:39.814Z,1.41
2022-11-22T11:14:11.259Z,1.71
2022-11-22T11:15:42.732Z,1.76
2022-11-22T11:17:14.335Z,1.74
2022-11-22T11:21:54.162Z,1.76
2022-11-22T11:23:50.878Z,1.74
2022-11-22T11:25:22.733Z,1.64
2022-11-22T11:26:54.580Z,1.49
2022-11-22T11:28:27.434Z,1.47
2022-11-22T11:29:59.150Z,1.72
2022-11-22T11:31:30.907Z,1.59
2022-11-22T11:33:02.384Z,1.50
2022-11-22T11:34:34.152Z,1.71
2022-11-22T11:36:06.206Z,1.77
2022-11-22T11:37:37.897Z,1.75
2022-11-22T11:39:09.489Z,1.66
2022-11-22T11:40:41.106Z,1.80
2022-11-22T11:42:12.912Z,1.64
2022-11-22T11:43:44.260Z,1.53
2022-11-22T11:45:48.712Z,1.38
2022-11-22T11:47:20.549Z,1.43
2022-11-22T11:48:52.046Z,1.57
2022-11-22T11:50:49.112Z,1.37
2022-11-22T11:52:21.509Z,1.53
2022-11-22T11:54:36.913Z,1.38
2022-11-22T11:56:08.837Z,1.65
2022-11-22T11:57:45.475Z,1.70
2022-11-22T11:59:16.892Z,1.30
2022-11-22T12:00:48.179Z,1.40
2022-11-22T12:02:19.444Z,1.48
2022-11-22T12:04:00.941Z,1.75
2022-11-22T12:06:04.167Z,1.77
2022-11-22T12:07:55.573Z,1.46
2022-11-22T12:09:53.985Z,1.77
2022-11-22T12:11:35.519Z,1.52
2022-11-22T12:13:07.002Z,1.67
2022-11-22T12:15:10.624Z,1.64
2022-11-22T12:16:58.054Z,1.38
2022-11-22T12:19:02.475Z,1.30
2022-11-22T12:20:36.506Z,1.35
2022-11-22T12:22:08.553Z,1.67
2022-11-22T12:23:39.860Z,1.44
2022-11-22T12:48:24.039Z,1.45
2022-11-22T12:50:42.900Z,1.58
2022-11-22T12:52:21.230Z,1.26
2022-11-22T12:53:52.763Z,1.46
2022-11-22T12:55:46.754Z,1.38
2022-11-22T12:57:19.917Z,1.30
2022-11-22T12:59:01.167Z,1.41
2022-11-22T13:00:39.374Z,1.44
2022-11-22T13:02:16.226Z,1.25
2022-11-22T13:04:00.589Z,1.60
2022-11-22T13:05:52.021Z,1.66
2022-11-22T13:07:23.893Z,1.64
2022-11-22T13:09:19.104Z,1.74
2022-11-22T13:10:50.783Z,1.43
2022-11-22T13:12:23.195Z,1.55
2022-11-22T13:13:59.818Z,1.42
2022-11-22T13:15:31.217Z,1.30
2022-11-22T13:17:02.467Z,1.29
2022-11-22T13:18:35.229Z,1.47
2022-11-22T13:20:06.628Z,1.31
2022-11-22T13:21:38.064Z,1.36
2022-11-22T13:23:09.500Z,1.36
2022-11-22T13:24:40.945Z,1.31
2022-11-22T13:26:17.715Z,1.18
2022-11-22T13:27:49.109Z,1.28
2022-11-22T13:29:20.506Z,1.25
2022-11-22T13:30:52.134Z,1.35
2022-11-22T13:32:23.589Z,1.27
2022-11-22T13:33:54.984Z,1.39
2022-11-22T13:35:26.938Z,1.50
2022-11-22T13:37:01.820Z,1.51
2022-11-22T13:38:33.448Z,1.26
2022-11-22T13:40:04.703Z,1.47
2022-11-22T13:41:36.467Z,1.46
2022-11-22T13:43:13.067Z,1.27
2022-11-22T13:44:46.027Z,1.32
2022-11-22T13:46:17.434Z,1.26
2022-11-22T13:47:48.794Z,1.27
2022-11-22T13:49:20.027Z,1.37
2022-11-22T13:50:51.633Z,1.62
2022-11-22T13:52:23.033Z,1.24
2022-11-22T13:53:54.340Z,1.20
2022-11-22T13:55:25.660Z,1.23
2022-11-22T13:56:56.992Z,1.18
2022-11-22T13:58:28.448Z,1.19
2022-11-22T13:59:59.739Z,1.12
2022-11-22T14:01:32.140Z,1.45
2022-11-22T14:03:13.546Z,2.66
2022-11-22T14:04:45.144Z,2.49
2022-11-22T14:06:17.603Z,1.40
2022-11-22T14:07:49.311Z,1.31
2022-11-22T14:09:20.627Z,1.26
2022-11-22T14:10:51.935Z,1.22
2022-11-22T14:12:23.235Z,1.11
2022-11-22T14:13:54.729Z,1.25
2022-11-22T14:15:26.153Z,1.21
2022-11-22T14:16:57.434Z,1.36
2022-11-22T14:18:29.052Z,1.40
2022-11-22T14:20:00.629Z,1.31
2022-11-22T14:21:32.006Z,1.23
2022-11-22T14:23:03.345Z,1.17
2022-11-22T14:24:34.792Z,1.24
2022-11-22T14:26:06.105Z,1.39
2022-11-22T14:27:37.553Z,1.46
2022-11-22T14:29:08.908Z,1.40
2022-11-22T14:30:40.235Z,1.43
2022-11-22T14:32:11.539Z,1.36
2022-11-22T14:33:42.944Z,1.84
2022-11-22T14:35:14.260Z,1.51
2022-11-22T14:36:45.520Z,1.48
2022-11-22T14:38:16.906Z,1.53
2022-11-22T14:39:48.243Z,1.31
2022-11-22T14:41:19.515Z,1.28
2022-11-22T14:42:50.851Z,1.22
2022-11-22T14:44:22.217Z,1.28
2022-11-22T14:45:53.618Z,1.13
2022-11-22T14:47:24.917Z,1.22
2022-11-22T14:49:01.684Z,1.18
2022-11-22T14:50:33.052Z,1.20
2022-11-22T14:52:04.301Z,1.34
2022-11-22T14:53:35.736Z,1.60
2022-11-22T14:55:07.084Z,1.41
2022-11-22T14:56:38.433Z,1.32
2022-11-22T14:58:09.790Z,0.98
2022-11-22T14:59:41.211Z,1.05
2022-11-22T15:01:12.709Z,1.11
2022-11-22T15:02:44.043Z,1.04
2022-11-22T15:09:13.962Z,1.10
2022-11-22T15:11:07.481Z,0.93
2022-11-22T15:12:38.919Z,1.10
2022-11-22T15:14:10.822Z,1.25
2022-11-22T15:58:39.076Z,1.32
2022-11-22T16:00:10.335Z,1.20
2022-11-22T16:01:41.604Z,1.24
2022-11-22T16:03:12.858Z,1.40
2022-11-22T16:04:44.365Z,1.21
2022-11-22T16:06:16.260Z,1.07
2022-11-22T16:07:47.612Z,1.03
2022-11-22T16:09:18.843Z,1.23
2022-11-22T16:10:50.056Z,1.26
2022-11-22T16:12:22.220Z,1.38
2022-11-22T16:13:53.651Z,1.44
2022-11-22T16:15:24.981Z,1.15
2022-11-22T16:16:56.226Z,1.11
2022-11-22T16:18:27.521Z,1.15
2022-11-22T16:19:58.948Z,1.60
2022-11-22T16:21:30.248Z,1.29
2022-11-22T16:23:01.802Z,1.29
2022-11-22T16:24:33.418Z,1.52
2022-11-22T16:26:04.875Z,1.34
2022-11-22T16:27:36.176Z,1.53
2022-11-22T16:29:07.383Z,1.25
2022-11-22T16:30:38.604Z,1.23
2022-11-22T16:32:09.896Z,1.21
2022-11-22T16:33:41.187Z,1.27
2022-11-22T16:35:28.502Z,1.22
2022-11-22T16:37:01.196Z,1.66
2022-11-22T16:38:32.495Z,1.28
2022-11-22T16:40:03.797Z,1.21
2022-11-22T16:41:35.171Z,1.32
2022-11-22T16:43:09.590Z,1.48
2022-11-22T16:44:41.061Z,1.56
2022-11-22T16:46:12.729Z,1.50
2022-11-22T16:47:44.789Z,1.62
2022-11-22T16:49:22.040Z,1.52
2022-11-22T16:50:53.334Z,1.32
2022-11-22T16:52:24.592Z,1.26
2022-11-22T16:53:55.787Z,1.16
2022-11-22T16:55:27.147Z,1.29
2022-11-22T16:56:58.675Z,1.17
2022-11-22T16:58:29.968Z,1.26
2022-11-22T17:00:01.245Z,1.24
2022-11-22T17:01:33.248Z,1.15
2022-11-22T17:03:04.820Z,1.13
2022-11-22T17:04:40.822Z,1.14
2022-11-22T17:06:12.591Z,1.28
2022-11-22T17:07:44.103Z,1.32
2022-11-22T17:09:15.459Z,1.53
2022-11-22T17:10:46.668Z,1.45
2022-11-22T17:12:18.056Z,1.34
2022-11-22T17:13:49.354Z,1.32
2022-11-22T17:15:20.648Z,1.19
2022-11-22T17:16:52.346Z,1.29
2022-11-22T17:18:23.718Z,1.27
2022-11-22T17:19:55.012Z,1.16
2022-11-22T17:21:27.842Z,1.16
2022-11-22T17:23:00.524Z,1.38
2022-11-22T17:24:32.099Z,1.37
2022-11-22T17:26:03.416Z,1.25
2022-11-22T17:27:34.817Z,1.27
2022-11-22T17:29:08.554Z,1.15
2022-11-22T17:30:45.579Z,1.17
2022-11-22T17:32:16.983Z,1.30
2022-11-22T17:33:48.265Z,1.41
2022-11-22T17:35:19.653Z,1.12
2022-11-22T17:36:50.936Z,1.24
2022-11-22T17:38:22.372Z,1.11
2022-11-22T17:39:53.802Z,1.12
2022-11-22T17:41:25.197Z,1.23
2022-11-22T17:42:56.704Z,1.23
2022-11-22T17:44:27.983Z,1.26
2022-11-22T17:45:59.375Z,1.19
2022-11-22T17:47:30.655Z,1.11
2022-11-22T17:49:01.956Z,1.30
2022-11-22T17:50:33.329Z,1.23
2022-11-22T17:52:09.986Z,1.54
2022-11-22T17:53:41.229Z,2.03
2022-11-22T17:55:17.510Z,1.98
2022-11-22T17:56:49.995Z,2.20
2022-11-22T17:58:21.284Z,1.71
2022-11-22T17:59:52.593Z,1.50
2022-11-22T18:01:23.971Z,1.78
2022-11-22T18:03:07.997Z,1.17
2022-11-22T18:04:39.746Z,1.13
2022-11-22T18:06:11.040Z,1.18
2022-11-22T18:07:42.603Z,1.30
2022-11-22T18:09:13.988Z,1.23
2022-11-22T18:10:45.272Z,1.07
2022-11-22T18:12:16.778Z,1.22
2022-11-22T18:13:48.243Z,1.16
2022-11-22T18:15:19.567Z,1.18
2022-11-22T18:16:50.835Z,0.89
2022-11-22T18:18:48.949Z,0.94
2022-11-22T18:20:26.231Z,1.03
2022-11-22T18:21:57.520Z,1.22
2022-11-22T18:23:29.114Z,0.98
2022-11-22T18:25:00.391Z,1.00
2022-11-22T18:26:39.275Z,1.03
2022-11-22T18:28:11.070Z,1.12
2022-11-22T18:29:43.280Z,1.24
2022-11-22T18:31:14.674Z,1.01
2022-11-22T18:32:45.963Z,1.04
2022-11-22T18:34:17.458Z,1.28
2022-11-22T18:35:56.162Z,1.17
2022-11-22T18:37:27.838Z,1.17
2022-11-22T18:38:59.068Z,1.11
2022-11-22T18:40:30.327Z,1.07
2022-11-22T18:42:01.813Z,1.18
2022-11-22T18:43:33.323Z,1.14
2022-11-22T18:45:04.610Z,1.01
2022-11-22T18:46:35.986Z,1.44
2022-11-22T18:48:07.311Z,1.56
2022-11-22T18:49:38.584Z,1.36
2022-11-22T18:51:09.895Z,1.40
2022-11-22T18:52:41.189Z,1.05
2022-11-22T18:54:12.448Z,1.16
2022-11-22T18:55:43.967Z,1.07
2022-11-22T18:57:15.580Z,1.23
2022-11-22T18:58:46.951Z,1.32
2022-11-22T19:00:18.380Z,1.17
2022-11-22T19:01:49.709Z,1.08
2022-11-22T19:03:20.983Z,0.96
2022-11-22T19:04:57.207Z,0.88
2022-11-22T19:06:28.470Z,1.00
2022-11-22T19:08:00.162Z,1.22
2022-11-22T19:09:31.844Z,1.10
2022-11-22T19:11:03.204Z,1.32
2022-11-22T19:12:34.535Z,1.04
2022-11-22T19:14:05.867Z,1.29
2022-11-22T19:15:37.368Z,2.56
2022-11-22T19:17:08.736Z,2.79
2022-11-22T19:18:43.097Z,2.30
2022-11-22T19:20:39.319Z,1.84
2022-11-22T19:22:18.933Z,1.24
2022-11-22T19:23:55.760Z,1.22
2022-11-22T19:25:27.807Z,1.30
2022-11-22T19:26:59.193Z,1.19
2022-11-22T19:28:30.461Z,1.08
2022-11-22T19:30:02.133Z,1.30
2022-11-22T19:31:34.132Z,1.34
2022-11-22T19:33:25.751Z,1.20
2022-11-22T19:34:57.563Z,1.09
2022-11-22T19:38:35.255Z,0.97
2022-11-22T19:40:06.811Z,1.08
2022-11-22T19:41:43.253Z,1.32
2022-11-22T19:43:16.522Z,1.52
2022-11-22T19:44:48.005Z,1.32
2022-11-22T19:46:19.378Z,1.17
2022-11-22T19:47:50.711Z,1.28
2022-11-22T19:49:22.033Z,1.25
2022-11-22T19:50:53.312Z,1.09
2022-11-22T19:52:24.651Z,1.04
2022-11-22T19:53:56.259Z,1.10
2022-11-22T19:55:27.445Z,1.17
2022-11-22T19:56:58.746Z,1.21
2022-11-22T19:58:30.716Z,1.28
2022-11-22T20:00:02.010Z,1.26
2022-11-22T20:01:34.750Z,1.37
2022-11-22T20:03:26.275Z,1.34
2022-11-22T20:04:58.755Z,1.43
2022-11-22T20:06:30.039Z,1.30
2022-11-22T20:08:01.346Z,1.20
2022-11-22T20:09:42.944Z,1.42
2022-11-22T20:11:19.509Z,1.28
2022-11-22T20:12:55.924Z,1.26
2022-11-22T20:14:27.177Z,1.32
2022-11-22T20:15:58.571Z,1.31
2022-11-22T20:17:39.857Z,1.31
2022-11-22T20:19:21.725Z,1.34
2022-11-22T20:21:08.808Z,1.63
2022-11-22T20:22:41.457Z,1.44
2022-11-22T20:24:13.144Z,1.65
2022-11-22T20:25:49.720Z,1.80
2022-11-22T20:27:26.190Z,1.68
2022-11-22T20:29:07.364Z,1.34
2022-11-22T20:30:39.068Z,1.63
2022-11-22T20:32:17.843Z,1.39
2022-11-22T20:34:19.214Z,1.42
2022-11-22T20:36:10.517Z,1.38
2022-11-22T20:37:41.893Z,1.25
2022-11-22T20:39:13.033Z,1.36
2022-11-22T20:40:44.245Z,1.42
2022-11-22T20:44:03.567Z,1.60
2022-11-22T20:45:34.748Z,1.52
2022-11-22T20:47:05.989Z,1.59
2022-11-22T20:48:37.301Z,1.28
2022-11-22T20:50:08.536Z,1.31
2022-11-22T20:51:39.968Z,1.52
2022-11-22T20:53:11.402Z,1.38
2022-11-22T20:54:42.600Z,1.24
2022-11-22T20:56:13.963Z,1.38
2022-11-22T20:57:45.349Z,1.41
2022-11-22T20:59:16.721Z,1.26
2022-11-22T21:00:48.142Z,1.33
2022-11-22T21:02:19.566Z,1.45
2022-11-22T21:03:50.738Z,1.43
2022-11-22T21:05:32.120Z,1.37
2022-11-22T21:07:03.470Z,1.46
2022-11-22T21:08:36.446Z,1.36
2022-11-22T21:10:07.650Z,1.58
2022-11-22T21:11:43.964Z,1.40
2022-11-22T21:13:35.267Z,1.19
2022-11-22T21:15:06.798Z,1.43
2022-11-22T21:16:38.340Z,1.35
2022-11-22T21:18:24.735Z,1.50
2022-11-22T21:20:14.019Z,1.61
2022-11-22T21:21:45.294Z,1.54
2022-11-22T21:23:16.797Z,1.63
2022-11-22T21:24:48.260Z,1.51
2022-11-22T21:26:19.863Z,1.51
2022-11-22T21:28:01.385Z,1.46
2022-11-22T21:29:32.805Z,1.54
2022-11-22T21:31:04.162Z,1.49
2022-11-22T21:32:50.677Z,1.53
2022-11-22T21:34:21.964Z,1.79
2022-11-22T21:35:53.252Z,1.40
2022-11-22T21:37:24.684Z,1.51
2022-11-22T21:39:06.133Z,1.52
2022-11-22T21:40:37.410Z,1.51
2022-11-22T21:42:08.724Z,1.75
2022-11-22T21:43:40.174Z,1.35
2022-11-22T21:45:11.412Z,1.49
2022-11-22T21:46:42.669Z,1.78
2022-11-22T21:48:14.109Z,1.51
2022-11-22T21:49:45.329Z,1.40
2022-11-22T21:51:16.653Z,1.37
2022-11-22T21:52:48.067Z,1.71
2022-11-22T21:54:19.378Z,1.49
2022-11-22T21:55:50.623Z,1.36
2022-11-22T21:57:22.001Z,1.32
2022-11-22T21:58:53.400Z,1.30
2022-11-22T22:00:24.721Z,1.53